Time;durP1;ratioP1;P1;durP2;ratioP2;P2;SDS_P1;SDS_P2;PMS_P1;PMS_P2;Temp;Humidity;BMP_temperature;BMP_pressure;BME280_temperature;BME280_humidity;BME280_pressure;Samples;Min_cycle;Max_cycle;Signal;HPM_P1;HPM_P2
2021/12/12 00:00:57;;;;;;;165.15;79.53;;;;;;;-0.29;91.45;98521.80;1780060;80;21012;-57
2021/12/12 00:03:34;;;;;;;173.82;80.67;;;;;;;-0.27;91.20;98530.41;1716016;81;22259;-57
2021/12/12 00:06:04;;;;;;;184.87;79.03;;;;;;;-0.28;91.77;98534.09;1730989;80;21446;-56
2021/12/12 00:08:30;;;;;;;179.10;78.90;;;;;;;-0.27;91.83;98537.06;1775830;80;20981;-57
2021/12/12 00:11:00;;;;;;;166.92;74.62;;;;;;;-0.25;91.63;98533.72;1742817;82;20886;-57
2021/12/12 00:13:35;;;;;;;144.97;73.00;;;;;;;-0.19;91.49;98534.23;1745503;82;21000;-57
2021/12/12 00:16:02;;;;;;;164.47;92.30;;;;;;;-0.20;91.83;98531.77;1717377;82;39833;-57
2021/12/12 00:18:28;;;;;;;147.57;77.62;;;;;;;-0.11;91.44;98535.39;1732668;80;20918;-57
2021/12/12 00:20:54;;;;;;;131.70;61.88;;;;;;;-0.11;91.49;98537.23;1739596;81;20881;-57
2021/12/12 00:23:20;;;;;;;124.40;64.05;;;;;;;-0.12;91.31;98546.26;1740359;80;20963;-56
2021/12/12 00:25:50;;;;;;;139.18;78.05;;;;;;;-0.16;91.27;98546.36;1764443;81;21445;-57
2021/12/12 00:28:19;;;;;;;126.55;61.48;;;;;;;-0.16;91.28;98549.84;1771435;80;21078;-57
2021/12/12 00:30:44;;;;;;;136.18;66.00;;;;;;;-0.13;91.38;98554.76;1776607;80;21004;-57
2021/12/12 00:33:09;;;;;;;121.07;60.52;;;;;;;-0.13;91.24;98560.60;1740362;82;21016;-57
2021/12/12 00:35:37;;;;;;;93.37;46.33;;;;;;;-0.15;91.11;98564.80;1701726;83;20870;-57
2021/12/12 00:38:14;;;;;;;92.95;45.23;;;;;;;-0.16;91.20;98561.01;1758336;80;20988;-57
2021/12/12 00:40:44;;;;;;;117.40;58.87;;;;;;;-0.19;90.93;98568.04;1756846;81;21713;-57
2021/12/12 00:43:18;;;;;;;439.13;248.07;;;;;;;-0.19;91.08;98568.04;1750474;81;21433;-58
2021/12/12 00:45:44;;;;;;;146.20;71.15;;;;;;;-0.19;90.36;98569.38;1742052;81;21030;-58
2021/12/12 00:48:09;;;;;;;106.22;52.03;;;;;;;-0.14;90.71;98575.77;1750675;81;20913;-58
2021/12/12 00:50:40;;;;;;;171.90;89.87;;;;;;;-0.08;90.83;98586.15;1737876;82;20889;-59
2021/12/12 00:53:08;;;;;;;147.28;74.95;;;;;;;-0.09;90.59;98588.48;1784865;79;21394;-59
2021/12/12 00:55:37;;;;;;;112.80;55.35;;;;;;;-0.08;90.61;98595.48;1777209;80;21342;-58
2021/12/12 00:58:10;;;;;;;565.60;281.63;;;;;;;-0.06;90.16;98587.59;1738058;82;21283;-59
2021/12/12 01:00:43;;;;;;;474.48;265.30;;;;;;;-0.06;89.82;98580.93;1745342;82;20980;-58
2021/12/12 01:03:09;;;;;;;258.93;121.72;;;;;;;-0.10;88.39;98579.66;1757652;80;21012;-58
2021/12/12 01:05:37;;;;;;;208.17;105.97;;;;;;;-0.13;87.60;98586.73;1740203;82;21555;-58
2021/12/12 01:08:05;;;;;;;403.95;188.07;;;;;;;-0.13;87.75;98583.24;1764633;81;20965;-58
2021/12/12 01:10:38;;;;;;;173.47;88.42;;;;;;;-0.10;88.37;98588.98;1766431;80;21040;-58
2021/12/12 01:13:06;;;;;;;279.43;121.50;;;;;;;-0.11;87.32;98589.19;1735609;82;21009;-59
2021/12/12 01:15:48;;;;;;;193.20;105.63;;;;;;;-0.17;86.28;98588.16;1723144;82;20998;-59
2021/12/12 01:18:19;;;;;;;139.12;66.50;;;;;;;-0.25;85.32;98588.31;1743738;80;21455;-59
2021/12/12 01:20:53;;;;;;;129.15;64.87;;;;;;;-0.21;86.88;98590.89;1763740;81;21044;-58
2021/12/12 01:23:35;;;;;;;124.55;62.83;;;;;;;-0.14;87.64;98597.08;1763056;79;20989;-58
2021/12/12 01:26:03;;;;;;;128.35;59.38;;;;;;;-0.13;86.91;98595.23;1768822;80;20961;-57
2021/12/12 01:28:31;;;;;;;110.97;52.40;;;;;;;-0.15;86.15;98596.77;1776368;80;21000;-57
2021/12/12 01:31:00;;;;;;;122.23;64.37;;;;;;;-0.17;86.20;98609.47;1747869;82;21237;-58
2021/12/12 01:33:33;;;;;;;116.73;52.20;;;;;;;-0.15;86.56;98613.27;1747414;82;21226;-58
2021/12/12 01:36:08;;;;;;;110.90;52.50;;;;;;;-0.16;86.03;98614.28;1778575;80;21016;-57
2021/12/12 01:38:54;;;;;;;113.17;50.15;;;;;;;-0.15;86.57;98611.42;1745002;81;21000;-59
2021/12/12 01:41:30;;;;;;;107.90;50.40;;;;;;;-0.14;86.52;98601.58;1771759;80;20989;-58
2021/12/12 01:44:01;;;;;;;110.48;49.83;;;;;;;-0.17;86.48;98609.47;1776247;80;21171;-58
2021/12/12 01:46:33;;;;;;;125.27;58.55;;;;;;;-0.19;86.85;98608.00;1738502;82;21006;-58
2021/12/12 01:49:18;;;;;;;126.90;58.52;;;;;;;-0.21;86.65;98612.20;1739010;82;21009;-57
2021/12/12 01:51:44;;;;;;;128.90;57.38;;;;;;;-0.22;86.68;98614.55;1760053;81;21453;-58
2021/12/12 01:54:11;;;;;;;128.42;63.10;;;;;;;-0.20;86.99;98610.35;1777590;79;21029;-58
2021/12/12 01:56:53;;;;;;;123.20;61.75;;;;;;;-0.15;87.35;98610.59;1760173;80;21604;-58
2021/12/12 01:59:19;;;;;;;129.82;60.15;;;;;;;-0.13;87.36;98604.05;1764652;80;20993;-57
2021/12/12 02:01:55;;;;;;;122.78;57.90;;;;;;;-0.16;86.68;98608.95;1764986;80;21096;-57
2021/12/12 02:04:29;;;;;;;113.57;53.00;;;;;;;-0.16;87.04;98599.63;1751214;81;20938;-58
2021/12/12 02:06:55;;;;;;;109.03;55.15;;;;;;;-0.15;87.23;98603.94;1764774;80;21049;-58
2021/12/12 02:09:22;;;;;;;114.40;53.20;;;;;;;-0.14;87.44;98595.75;1778599;79;21451;-58
2021/12/12 02:11:48;;;;;;;133.07;66.72;;;;;;;-0.09;87.58;98596.47;1777632;80;20966;-58
2021/12/12 02:14:17;;;;;;;116.47;54.25;;;;;;;-0.08;87.53;98594.97;1727933;82;21067;-58
2021/12/12 02:16:53;;;;;;;111.50;52.43;;;;;;;-0.11;87.55;98594.01;1764743;80;20986;-58
2021/12/12 02:19:29;;;;;;;101.72;48.70;;;;;;;-0.11;87.28;98590.52;1761030;80;21012;-58
2021/12/12 02:22:01;;;;;;;101.53;47.10;;;;;;;-0.20;87.16;98603.69;1757544;81;21500;-58
2021/12/12 02:35:05;;;;;;;106.47;52.20;;;;;;;-0.28;87.34;98604.67;1753968;81;21440;-58
2021/12/12 02:35:16;;;;;;;109.80;47.80;;;;;;;-0.30;88.11;98610.71;1758591;81;21484;-57
2021/12/12 02:37:36;;;;;;;113.10;50.88;;;;;;;-0.33;87.66;98608.45;1780499;80;21252;-57
2021/12/12 02:40:09;;;;;;;132.35;54.40;;;;;;;-0.45;87.87;98620.13;1758490;81;21012;-57
2021/12/12 02:42:36;;;;;;;141.75;57.40;;;;;;;-0.43;87.99;98618.60;1767435;80;21037;-57
2021/12/12 02:45:03;;;;;;;134.37;59.53;;;;;;;-0.47;87.82;98616.02;1764574;81;21467;-58
2021/12/12 02:47:34;;;;;;;112.95;52.98;;;;;;;-0.48;88.09;98620.53;1764747;80;22125;-58
2021/12/12 02:50:10;;;;;;;101.30;46.85;;;;;;;-0.47;87.97;98622.69;1740328;82;21452;-57
2021/12/12 02:52:36;;;;;;;107.55;48.48;;;;;;;-0.51;88.09;98627.59;1740273;81;21048;-57
2021/12/12 02:55:14;;;;;;;104.60;48.35;;;;;;;-0.50;88.15;98630.56;1764671;81;21425;-57
2021/12/12 02:57:40;;;;;;;113.80;48.38;;;;;;;-0.53;88.09;98630.11;1765296;79;21013;-57
2021/12/12 03:00:08;;;;;;;114.95;51.33;;;;;;;-0.60;88.07;98632.71;1764623;80;22229;-57
2021/12/12 03:02:42;;;;;;;130.45;56.40;;;;;;;-0.61;88.27;98637.72;1740449;82;21480;-57
2021/12/12 03:05:05;;;;;;;132.03;59.27;;;;;;;-0.57;88.47;98637.16;1739408;82;21041;-57
2021/12/12 03:07:30;;;;;;;122.40;55.63;;;;;;;-0.54;88.50;98651.91;1736318;82;20989;-57
2021/12/12 03:09:57;;;;;;;126.97;55.85;;;;;;;-0.51;89.43;98642.71;1764745;81;20973;-57
2021/12/12 03:12:33;;;;;;;107.83;55.12;;;;;;;-0.51;89.13;98648.03;1778052;80;21341;-57
2021/12/12 03:15:05;;;;;;;112.08;53.30;;;;;;;-0.50;89.02;98645.20;1761871;80;21381;-58
2021/12/12 03:17:31;;;;;;;108.42;55.88;;;;;;;-0.50;88.63;98643.05;1766603;80;21007;-58
2021/12/12 03:20:03;;;;;;;120.35;54.85;;;;;;;-0.49;88.79;98647.36;1777722;80;21412;-58
2021/12/12 03:22:30;;;;;;;123.55;58.08;;;;;;;-0.42;88.89;98642.39;1732269;82;21001;-58
2021/12/12 03:24:57;;;;;;;125.60;59.53;;;;;;;-0.50;88.74;98646.53;1747820;82;22078;-58
2021/12/12 03:27:24;;;;;;;119.47;55.20;;;;;;;-0.52;89.62;98647.72;1750558;80;21481;-58
2021/12/12 03:29:51;;;;;;;116.53;54.80;;;;;;;-0.52;89.16;98651.72;1777297;80;21528;-58
2021/12/12 03:32:20;;;;;;;116.28;53.38;;;;;;;-0.54;89.52;98654.58;1748345;82;21025;-57
2021/12/12 03:34:50;;;;;;;;;;;;;;;-0.55;89.09;98655.59;1748214;82;21488;-57
2021/12/12 03:37:18;;;;;;;110.20;48.60;;;;;;;-0.58;89.11;98656.81;1744269;82;20662;-57
2021/12/12 03:39:47;;;;;;;106.47;48.40;;;;;;;-0.60;89.37;98661.99;1745252;82;20988;-57
2021/12/12 03:42:17;;;;;;;;;;;;;;;-0.58;89.13;98662.65;1738127;81;21072;-57
2021/12/12 03:44:45;;;;;;;140.07;59.58;;;;;;;-0.64;89.14;98664.23;1775313;80;20157;-57
2021/12/12 03:47:28;;;;;;;80.65;36.77;;;;;;;-0.65;89.30;98667.91;1775160;80;21032;-57
2021/12/12 03:49:58;;;;;;;99.80;45.55;;;;;;;-0.60;89.20;98667.31;1766875;81;21535;-57
2021/12/12 03:52:25;;;;;;;83.27;39.23;;;;;;;-0.57;89.26;98668.28;1778613;80;20977;-58
2021/12/12 03:54:53;;;;;;;85.38;42.48;;;;;;;-0.52;89.00;98674.34;1777411;79;20949;-58
2021/12/12 03:57:20;;;;;;;86.25;42.60;;;;;;;-0.46;89.12;98680.23;1730736;82;21014;-57
2021/12/12 03:59:48;;;;;;;88.25;40.85;;;;;;;-0.43;89.12;98675.34;1745550;81;21020;-57
2021/12/12 04:02:14;;;;;;;81.75;39.15;;;;;;;-0.42;89.21;98677.52;1732800;82;22049;-58
2021/12/12 04:04:43;;;;;;;88.33;40.88;;;;;;;-0.40;89.04;98676.81;1740263;82;21468;-58
2021/12/12 04:07:21;;;;;;;92.10;41.33;;;;;;;-0.42;88.97;98679.67;1764463;81;21449;-58
2021/12/12 04:09:48;;;;;;;91.78;43.25;;;;;;;-0.38;89.10;98682.25;1764566;80;21001;-58
2021/12/12 04:12:17;;;;;;;84.20;40.63;;;;;;;-0.35;89.14;98679.70;1764766;80;21051;-58
2021/12/12 04:14:44;;;;;;;88.35;43.02;;;;;;;-0.34;88.99;98680.05;1743130;79;21067;-58
2021/12/12 04:17:15;;;;;;;77.32;37.38;;;;;;;-0.35;88.94;98670.38;1745697;81;20980;-58
2021/12/12 04:19:44;;;;;;;82.50;42.05;;;;;;;-0.30;89.03;98670.13;1756477;81;20984;-58
2021/12/12 04:22:11;;;;;;;88.15;40.63;;;;;;;-0.39;88.66;98681.94;1758686;81;20996;-58
2021/12/12 04:24:41;;;;;;;84.15;38.65;;;;;;;-0.46;88.65;98679.73;1758998;80;21007;-58
2021/12/12 04:27:08;;;;;;;78.95;34.90;;;;;;;-0.53;88.71;98674.03;1742439;81;21663;-58
2021/12/12 04:29:38;;;;;;;79.05;37.05;;;;;;;-0.55;88.56;98678.23;1737883;82;21449;-58
2021/12/12 04:32:09;;;;;;;81.08;40.78;;;;;;;-0.63;88.57;98676.52;1737890;82;20992;-58
2021/12/12 04:34:43;;;;;;;70.80;38.20;;;;;;;-0.69;88.75;98665.30;1737673;82;21009;-58
2021/12/12 04:37:11;;;;;;;62.53;32.17;;;;;;;-0.72;88.82;98671.53;1737912;82;21529;-57
2021/12/12 04:39:41;;;;;;;77.22;41.88;;;;;;;-0.74;89.61;98672.23;1779784;79;21093;-57
2021/12/12 04:42:30;;;;;;;92.82;48.10;;;;;;;-0.75;89.00;98671.92;1753117;80;21047;-57
2021/12/12 04:45:09;;;;;;;;;;;;;;;-0.74;89.15;98677.56;1767224;80;21048;-57
2021/12/12 04:51:01;;;;;;;78.70;35.85;;;;;;;-0.63;89.44;98683.69;1775067;79;21044;-58
2021/12/12 04:53:39;;;;;;;77.20;35.60;;;;;;;-0.60;89.41;98688.14;1750535;80;21048;-58
2021/12/12 04:56:29;;;;;;;72.78;36.95;;;;;;;-0.60;89.11;98691.28;1752467;81;21388;-57
2021/12/12 04:59:16;;;;;;;74.77;39.70;;;;;;;-0.60;89.10;98701.45;1743474;80;21037;-57
2021/12/12 05:01:57;;;;;;;61.73;34.63;;;;;;;-0.61;89.45;98705.61;1738284;82;21008;-57
2021/12/12 05:04:36;;;;;;;66.05;33.83;;;;;;;-0.64;89.61;98714.80;1736941;82;21390;-57
2021/12/12 05:07:18;;;;;;;;;;;;;;;-0.68;89.62;98721.55;1741488;82;22310;-57
2021/12/12 05:09:53;;;;;;;67.20;34.83;;;;;;;-0.67;89.87;98719.19;1737821;82;20164;-57
2021/12/12 05:12:46;;;;;;;79.32;35.83;;;;;;;-0.65;89.56;98719.81;1776252;80;21398;-57
2021/12/12 05:15:22;;;;;;;64.10;32.17;;;;;;;-0.68;89.28;98724.20;1742668;79;20978;-57
2021/12/12 05:18:00;;;;;;;68.60;34.20;;;;;;;-0.68;89.66;98726.86;1714806;82;20961;-57
2021/12/12 05:20:38;;;;;;;69.67;36.88;;;;;;;-0.67;90.07;98734.34;1740453;80;22104;-57
2021/12/12 05:23:08;;;;;;;65.40;34.18;;;;;;;-0.67;90.12;98736.50;1740348;82;20988;-57
2021/12/12 05:25:49;;;;;;;85.00;48.35;;;;;;;-0.62;89.88;98744.72;1764592;81;20981;-57
2021/12/12 05:28:19;;;;;;;88.40;49.30;;;;;;;-0.58;89.78;98746.00;1765143;80;21008;-57
2021/12/12 05:30:46;;;;;;;74.72;43.65;;;;;;;-0.52;89.74;98747.56;1764629;81;21496;-57
2021/12/12 05:33:14;;;;;;;64.10;31.37;;;;;;;-0.49;89.64;98754.69;1765196;80;21415;-57
2021/12/12 05:35:42;;;;;;;56.47;26.73;;;;;;;-0.45;89.50;98760.44;1765072;81;21013;-57
2021/12/12 05:38:09;;;;;;;54.60;28.50;;;;;;;-0.43;89.43;98763.22;1770616;80;21023;-57
2021/12/12 05:40:38;;;;;;;60.55;28.45;;;;;;;-0.41;89.42;98769.20;1777626;80;21040;-56
2021/12/12 05:43:07;;;;;;;49.15;25.05;;;;;;;-0.39;89.34;98766.34;1737519;82;21044;-57
2021/12/12 05:45:34;;;;;;;42.08;22.35;;;;;;;-0.38;89.33;98763.48;1761489;81;21913;-57
2021/12/12 05:48:04;;;;;;;43.68;23.83;;;;;;;-0.36;89.34;98768.61;1756421;81;21432;-57
2021/12/12 05:50:31;;;;;;;37.25;19.23;;;;;;;-0.35;89.32;98764.41;1755576;81;21558;-57
2021/12/12 05:52:57;;;;;;;42.58;22.55;;;;;;;-0.35;89.28;98764.92;1765030;81;21027;-57
2021/12/12 05:55:29;;;;;;;49.85;26.82;;;;;;;-0.34;89.22;98767.42;1764889;80;20969;-57
2021/12/12 05:57:56;;;;;;;50.65;27.80;;;;;;;-0.33;89.23;98771.73;1769191;80;20960;-57
2021/12/12 06:00:28;;;;;;;51.53;26.15;;;;;;;-0.33;89.46;98769.06;1731395;80;20996;-57
2021/12/12 06:02:55;;;;;;;52.03;28.95;;;;;;;-0.33;89.29;98779.72;1741830;82;21469;-57
2021/12/12 06:05:22;;;;;;;58.40;30.35;;;;;;;-0.33;89.40;98770.91;1740713;81;20973;-57
2021/12/12 06:07:50;;;;;;;68.17;34.80;;;;;;;-0.35;89.35;98765.75;1765458;81;20934;-57
2021/12/12 06:10:17;;;;;;;76.75;39.55;;;;;;;-0.45;89.42;98775.08;1765332;80;21328;-57
2021/12/12 06:12:44;;;;;;;78.10;40.33;;;;;;;-0.48;89.78;98774.14;1770670;80;21435;-57
2021/12/12 06:15:16;;;;;;;92.42;47.10;;;;;;;-0.48;89.53;98784.80;1753892;81;21449;-57
2021/12/12 06:17:44;;;;;;;151.68;65.57;;;;;;;-0.49;89.64;98785.81;1748275;81;20969;-57
2021/12/12 06:20:11;;;;;;;196.02;79.42;;;;;;;-0.54;89.44;98785.55;1783333;78;20980;-56
2021/12/12 06:22:38;;;;;;;207.12;75.70;;;;;;;-0.57;89.56;98792.91;1747557;80;21087;-57
2021/12/12 06:25:06;;;;;;;143.30;57.95;;;;;;;-0.55;89.62;98794.55;1765144;81;20942;-57
2021/12/12 06:27:33;;;;;;;123.20;57.33;;;;;;;-0.53;89.70;98791.18;1765397;80;20989;-57
2021/12/12 06:30:01;;;;;;;115.35;51.00;;;;;;;-0.54;89.84;98794.35;1764963;81;20969;-57
2021/12/12 06:32:27;;;;;;;101.45;47.38;;;;;;;-0.56;89.82;98799.05;1765029;80;20962;-57
2021/12/12 06:34:56;;;;;;;89.15;43.78;;;;;;;-0.52;89.90;98796.82;1765138;80;21376;-57
2021/12/12 06:37:23;;;;;;;84.28;40.95;;;;;;;-0.47;90.02;98798.42;1778340;80;25813;-57
2021/12/12 06:39:50;;;;;;;73.28;36.95;;;;;;;-0.41;90.25;98797.67;1777995;80;20910;-57
2021/12/12 06:42:17;;;;;;;63.92;31.45;;;;;;;-0.47;90.38;98799.75;1731439;82;20950;-57
2021/12/12 06:44:44;;;;;;;48.58;24.23;;;;;;;-0.48;90.42;98794.94;1697763;84;21030;-57
2021/12/12 06:47:14;;;;;;;62.20;32.40;;;;;;;-0.47;90.43;98796.58;1710595;82;21416;-57
2021/12/12 06:49:41;;;;;;;67.65;32.65;;;;;;;-0.54;90.31;98785.03;1750863;80;21065;-57
2021/12/12 06:52:09;;;;;;;79.22;38.05;;;;;;;-0.59;90.36;98787.46;1748811;82;20965;-59
2021/12/12 06:54:37;;;;;;;90.30;41.83;;;;;;;-0.62;90.39;98787.81;1738255;81;20957;-57
2021/12/12 06:57:07;;;;;;;115.67;47.95;;;;;;;-0.70;90.31;98785.27;1765114;81;20964;-57
2021/12/12 06:59:37;;;;;;;95.67;43.58;;;;;;;-0.71;90.42;98784.45;1754535;80;21819;-56
2021/12/12 07:02:05;;;;;;;66.95;36.77;;;;;;;-0.70;90.71;98782.61;1740679;82;20970;-57
2021/12/12 07:04:33;;;;;;;63.98;33.23;;;;;;;-0.63;90.89;98789.66;1764878;81;20992;-57
2021/12/12 07:07:02;;;;;;;162.95;84.45;;;;;;;-0.58;90.80;98781.94;1765330;80;20987;-57
2021/12/12 07:09:30;;;;;;;;;;;;;;;-0.50;90.63;98785.50;1766417;81;21051;-57
2021/12/12 07:12:01;;;;;;;61.73;30.30;;;;;;;-0.44;90.84;98772.22;1763824;81;21427;-57
2021/12/12 07:14:28;;;;;;;71.90;37.50;;;;;;;-0.35;90.59;98768.92;1729927;82;20982;-57
2021/12/12 07:16:55;;;;;;;107.47;62.85;;;;;;;-0.36;90.28;98771.27;1756231;80;20971;-57
2021/12/12 07:19:22;;;;;;;53.23;31.80;;;;;;;-0.31;90.30;98775.53;1761430;80;21055;-57
2021/12/12 07:21:49;;;;;;;50.30;29.27;;;;;;;-0.24;90.33;98775.59;1778294;80;21398;-57
2021/12/12 07:24:17;;;;;;;55.75;31.05;;;;;;;-0.27;90.33;98774.63;1772754;80;21260;-57
2021/12/12 07:26:44;;;;;;;74.15;39.30;;;;;;;-0.38;90.29;98775.97;1774544;80;20993;-56
2021/12/12 07:29:11;;;;;;;78.35;42.70;;;;;;;-0.38;90.56;98775.97;1752174;80;20956;-59
2021/12/12 07:31:39;;;;;;;74.95;43.50;;;;;;;-0.30;90.65;98777.17;1740751;81;21017;-57
2021/12/12 07:34:09;;;;;;;69.07;39.15;;;;;;;-0.25;90.42;98781.43;1740852;81;21024;-57
2021/12/12 07:36:41;;;;;;;108.03;60.25;;;;;;;-0.20;90.08;98784.83;1765091;81;21366;-57
2021/12/12 07:39:10;;;;;;;120.37;65.00;;;;;;;-0.17;89.83;98787.10;1762673;79;20974;-57
2021/12/12 07:41:38;;;;;;;120.92;60.48;;;;;;;-0.14;89.78;98794.22;1765146;80;21410;-57
2021/12/12 07:44:08;;;;;;;113.45;65.87;;;;;;;-0.06;90.01;98786.09;1750467;80;21362;-57
2021/12/12 07:46:36;;;;;;;124.50;64.17;;;;;;;-0.04;89.72;98790.71;1747312;82;21000;-57
2021/12/12 07:49:03;;;;;;;92.33;48.13;;;;;;;-0.05;89.00;98791.73;1742244;81;22116;-57
2021/12/12 07:51:30;;;;;;;148.80;76.82;;;;;;;0.00;89.41;98796.50;1764996;80;21547;-57
2021/12/12 07:53:58;;;;;;;122.47;61.33;;;;;;;0.05;89.43;98794.56;1775921;80;21005;-57
2021/12/12 07:56:28;;;;;;;111.08;55.12;;;;;;;0.07;88.97;98791.19;1716921;83;21041;-57
2021/12/12 07:58:56;;;;;;;125.78;61.33;;;;;;;0.13;89.12;98793.09;1746113;82;20989;-57
2021/12/12 08:01:24;;;;;;;109.12;58.13;;;;;;;0.18;89.17;98795.50;1746938;81;21378;-57
2021/12/12 08:03:53;;;;;;;119.13;54.38;;;;;;;0.19;88.88;98794.48;1764829;81;21037;-57
2021/12/12 08:06:20;;;;;;;113.77;53.73;;;;;;;0.16;88.68;98788.70;1738219;82;21044;-57
2021/12/12 08:08:47;;;;;;;96.78;48.25;;;;;;;0.16;88.77;98787.36;1771097;80;21370;-57
2021/12/12 08:11:20;;;;;;;92.47;45.60;;;;;;;0.20;88.50;98784.64;1763947;80;21473;-57
2021/12/12 08:13:47;;;;;;;102.30;48.85;;;;;;;0.21;88.58;98797.77;1745372;82;21136;-57
2021/12/12 08:16:15;;;;;;;145.22;56.35;;;;;;;0.27;88.73;98793.52;1764074;81;21005;-57
2021/12/12 08:18:44;;;;;;;214.82;76.28;;;;;;;0.35;88.75;98805.36;1739624;81;21028;-57
2021/12/12 08:21:11;;;;;;;160.40;70.37;;;;;;;0.41;88.65;98795.22;1753265;81;21008;-56
2021/12/12 08:23:37;;;;;;;120.62;52.10;;;;;;;0.49;88.84;98803.59;1748777;81;21177;-57
2021/12/12 08:26:07;;;;;;;156.80;65.97;;;;;;;0.54;88.48;98805.17;1748004;80;21465;-57
2021/12/12 08:28:34;;;;;;;127.92;57.80;;;;;;;0.52;87.78;98808.03;1747450;81;21036;-57
2021/12/12 08:31:02;;;;;;;109.20;51.23;;;;;;;0.62;88.09;98809.02;1769941;80;20969;-57
2021/12/12 08:33:28;;;;;;;121.87;57.48;;;;;;;0.76;88.71;98809.38;1761156;80;20976;-57
2021/12/12 08:35:56;;;;;;;114.52;56.60;;;;;;;0.82;88.51;98809.11;1764886;81;21465;-57
2021/12/12 08:38:23;;;;;;;122.13;60.98;;;;;;;0.91;88.81;98811.92;1740732;82;21438;-57
2021/12/12 08:40:54;;;;;;;125.97;61.77;;;;;;;0.99;88.81;98817.09;1764664;79;20961;-57
2021/12/12 08:43:22;;;;;;;158.95;76.50;;;;;;;1.05;88.44;98813.63;1765114;80;20962;-57
2021/12/12 08:45:54;;;;;;;161.80;77.50;;;;;;;0.97;87.77;98811.13;1764720;80;21025;-57
2021/12/12 08:48:24;;;;;;;127.78;69.72;;;;;;;0.92;87.99;98815.41;1755093;81;21008;-57
2021/12/12 08:50:54;;;;;;;102.17;51.85;;;;;;;0.88;87.97;98808.33;1757102;80;20984;-57
2021/12/12 08:53:21;;;;;;;81.42;44.55;;;;;;;0.91;87.83;98810.59;1748994;80;21421;-57
2021/12/12 08:55:51;;;;;;;88.35;44.70;;;;;;;0.88;87.02;98810.17;1764649;81;20970;-57
2021/12/12 08:58:22;;;;;;;109.55;51.05;;;;;;;0.72;86.94;98812.66;1754451;80;20939;-57
2021/12/12 09:01:06;;;;;;;121.25;55.55;;;;;;;0.72;87.21;98814.80;1740398;80;21450;-57
2021/12/12 09:03:48;;;;;;;105.87;54.90;;;;;;;0.74;87.30;98803.42;1764901;80;21487;-57
2021/12/12 09:06:15;;;;;;;114.80;50.65;;;;;;;0.92;87.42;98798.06;1758403;80;20965;-57
2021/12/12 09:08:50;;;;;;;94.72;45.40;;;;;;;1.02;87.17;98807.85;1774598;79;20984;-57
2021/12/12 09:11:47;;;;;;;89.83;47.33;;;;;;;1.12;87.24;98801.14;1773124;80;20966;-57
2021/12/12 09:14:36;;;;;;;72.60;39.27;;;;;;;1.20;86.69;98799.29;1744509;81;21440;-57
2021/12/12 09:17:09;;;;;;;160.15;62.33;;;;;;;1.12;86.67;98790.98;1752207;81;20948;-57
2021/12/12 09:19:55;;;;;;;136.20;57.33;;;;;;;1.29;86.92;98789.59;1781422;79;20993;-57
2021/12/12 09:22:34;;;;;;;124.12;55.30;;;;;;;1.29;86.00;98784.25;1750280;80;21460;-57
2021/12/12 09:25:34;;;;;;;104.72;45.48;;;;;;;1.24;86.23;98790.69;1764994;80;21410;-57
2021/12/12 09:28:11;;;;;;;94.13;43.87;;;;;;;1.36;86.02;98792.25;1732403;82;21009;-57
2021/12/12 09:30:38;;;;;;;82.08;39.05;;;;;;;1.32;85.94;98788.36;1725665;82;21417;-57
2021/12/12 09:33:25;;;;;;;69.32;32.25;;;;;;;1.45;86.20;98784.36;1765225;81;20965;-57
2021/12/12 09:36:09;;;;;;;55.48;31.48;;;;;;;1.55;85.70;98784.82;1764824;80;21049;-57
2021/12/12 09:38:48;;;;;;;71.30;39.95;;;;;;;1.47;84.75;98783.67;1765082;80;21060;-57
2021/12/12 09:41:45;;;;;;;67.03;38.53;;;;;;;1.59;85.39;98781.22;1765042;80;20996;-57
2021/12/12 09:44:52;;;;;;;74.82;34.75;;;;;;;1.75;85.28;98776.00;1777485;79;21336;-57
2021/12/12 09:53:47;;;;;;;64.17;34.55;;;;;;;2.10;83.55;98784.63;1744187;82;20997;-57
2021/12/12 09:56:23;;;;;;;55.73;29.30;;;;;;;2.21;82.89;98779.98;1745085;81;21425;-57
2021/12/12 09:59:39;;;;;;;73.33;33.30;;;;;;;2.22;83.35;98777.12;1759734;80;21341;-57
2021/12/12 10:02:24;;;;;;;52.45;28.02;;;;;;;2.14;83.17;98766.65;1764635;81;21006;-57
2021/12/12 10:05:20;;;;;;;70.12;34.88;;;;;;;2.05;82.81;98775.06;1740412;82;21033;-56
2021/12/12 10:08:16;;;;;;;54.65;27.65;;;;;;;2.07;83.80;98769.02;1764901;80;20981;-57
2021/12/12 10:11:12;;;;;;;167.35;80.28;;;;;;;2.09;81.54;98773.12;1765052;79;20992;-57
2021/12/12 10:13:46;;;;;;;64.30;34.20;;;;;;;2.01;82.37;98767.98;1759658;80;21349;-57
2021/12/12 10:16:36;;;;;;;89.40;45.33;;;;;;;2.09;82.62;98762.94;1747213;80;21017;-57
2021/12/12 10:19:37;;;;;;;80.38;39.63;;;;;;;2.09;83.03;98768.28;1764642;80;21008;-57
2021/12/12 10:22:25;;;;;;;262.45;121.50;;;;;;;2.03;81.64;98769.92;1747305;82;20956;-57
2021/12/12 10:25:15;;;;;;;280.98;126.72;;;;;;;1.73;76.24;98767.38;1751212;80;20972;-57
2021/12/12 10:28:07;;;;;;;449.52;251.62;;;;;;;1.59;78.02;98770.02;1755120;81;21311;-57
2021/12/12 10:30:38;;;;;;;464.87;253.10;;;;;;;1.62;77.62;98775.45;1763653;80;21053;-57
2021/12/12 10:33:26;;;;;;;119.37;57.53;;;;;;;1.65;78.62;98768.39;1763948;80;21445;-57
2021/12/12 10:36:18;;;;;;;114.40;48.55;;;;;;;1.65;77.86;98777.73;1741490;82;20998;-57
2021/12/12 10:39:20;;;;;;;253.07;97.40;;;;;;;1.70;78.12;98774.74;1757980;80;21467;-57
2021/12/12 10:41:55;;;;;;;386.20;168.45;;;;;;;1.64;73.83;98764.07;1743857;81;22130;-57
2021/12/12 10:44:31;;;;;;;230.65;96.32;;;;;;;1.61;72.48;98763.95;1778937;79;21314;-57
2021/12/12 10:47:31;;;;;;;191.05;82.75;;;;;;;1.74;73.12;98768.50;1754295;79;21031;-57
2021/12/12 10:50:11;;;;;;;82.05;43.30;;;;;;;1.88;75.29;98774.65;1728714;83;20997;-56
2021/12/12 10:52:58;;;;;;;824.62;359.20;;;;;;;1.77;72.76;98769.92;1748787;80;20982;-57
2021/12/12 10:55:41;;;;;;;287.10;125.55;;;;;;;1.94;73.71;98774.66;1778270;79;21564;-57
2021/12/12 10:58:39;;;;;;;310.48;125.40;;;;;;;2.07;73.64;98777.03;1718291;82;20986;-57
2021/12/12 11:01:14;;;;;;;172.62;82.02;;;;;;;2.13;70.59;98776.19;1722522;81;20976;-57
2021/12/12 11:03:55;;;;;;;379.02;178.30;;;;;;;2.16;70.10;98774.45;1747918;80;21005;-57
2021/12/12 11:06:32;;;;;;;312.35;152.57;;;;;;;2.16;69.15;98773.12;1765079;81;20950;-57
2021/12/12 11:09:08;;;;;;;534.87;258.10;;;;;;;2.07;68.54;98775.19;1775477;80;21414;-57
2021/12/12 11:11:45;;;;;;;438.20;175.10;;;;;;;2.19;70.02;98766.01;1771674;80;21024;-57
2021/12/12 11:14:24;;;;;;;125.05;56.37;;;;;;;2.27;69.15;98769.80;1758159;80;20986;-57
2021/12/12 11:17:06;;;;;;;725.00;325.25;;;;;;;2.19;68.14;98770.84;1740600;82;26025;-57
2021/12/12 11:19:43;;;;;;;491.65;213.95;;;;;;;2.00;66.94;98762.84;1753317;81;21460;-57
2021/12/12 11:22:15;;;;;;;368.33;161.00;;;;;;;1.97;67.57;98762.75;1753767;80;20974;-57
2021/12/12 11:24:50;;;;;;;178.47;86.02;;;;;;;2.08;67.77;98760.78;1753726;81;20933;-57
2021/12/12 11:27:34;;;;;;;164.70;74.27;;;;;;;2.04;67.13;98762.72;1746867;80;20988;-57
2021/12/12 11:30:18;;;;;;;341.95;147.28;;;;;;;2.12;67.62;98759.33;1742213;81;20954;-56
2021/12/12 11:32:44;;;;;;;174.27;84.75;;;;;;;2.11;67.82;98759.02;1764636;80;20998;-57
2021/12/12 11:35:12;;;;;;;242.82;116.28;;;;;;;2.23;67.94;98759.23;1765284;81;21349;-57
2021/12/12 11:37:45;;;;;;;224.30;108.35;;;;;;;2.15;67.47;98757.59;1761019;80;20992;-58
2021/12/12 11:40:23;;;;;;;140.00;65.52;;;;;;;1.98;66.75;98755.86;1756475;81;21000;-56
2021/12/12 11:43:14;;;;;;;232.35;93.82;;;;;;;1.94;67.20;98753.27;1757009;80;21037;-57
2021/12/12 11:45:57;;;;;;;146.28;66.28;;;;;;;1.88;67.28;98752.78;1754718;80;20930;-57
2021/12/12 11:48:55;;;;;;;69.00;40.03;;;;;;;1.89;68.48;98745.06;1738337;82;21362;-58
2021/12/12 11:51:39;;;;;;;61.03;34.37;;;;;;;1.62;69.06;98752.26;1766340;81;21422;-57
2021/12/12 11:54:30;;;;;;;66.87;38.88;;;;;;;1.64;69.66;98752.05;1745755;81;21059;-57
2021/12/12 11:57:17;;;;;;;73.28;40.88;;;;;;;1.52;69.89;98747.80;1775542;80;21417;-57
2021/12/12 12:00:08;;;;;;;69.77;39.88;;;;;;;1.74;70.54;98747.63;1777497;80;20957;-57
2021/12/12 12:02:53;;;;;;;50.92;25.92;;;;;;;1.65;69.82;98747.83;1772978;79;21049;-57